Aniwa, WI (54408)

12:00 PM CDT on July 28, 2016 (GMT -0500)
Emma Street | | Change Station

Elev 1414 ft 45.01 °N, 89.21 °W | Updated 4 minutes ago

Overcast
Overcast
63.3 °F
Feels Like 63.3 °F
N
3.7
Wind Variable Wind from West
Gusts 8.7 mph

Today
High -- | Low -- °F
--% Chance of Precip.
Yesterday
High -- | Low -- °F
Precip. -- in
Pressure 30.04 in
Visibility 10.0 miles
Clouds Scattered Clouds 3000 ft
Overcast 3900 ft
Dew Point 63 °F
Humidity 100%
Rainfall 0.21 in
Snow Depth Not available.
5:38 AM 8:28 PM
Waning Crescent, 30% visible
METAR KAIG 281635Z AUTO 08004KT 10SM SCT030 OVC039 16/14 A3004 RMK AO2 T01560141
Pressure 30.04 in
Visibility 10.0 miles
Clouds Scattered Clouds 3000 ft
Overcast 3900 ft
Dew Point 63 °F
Humidity 100%
Rainfall 0.21 in
Snow Depth Not available.
5:38 AM 8:28 PM
Waning Crescent, 30% visible
METAR KAIG 281635Z AUTO 08004KT 10SM SCT030 OVC039 16/14 A3004 RMK AO2 T01560141

10-Day Weather Forecast

Almanac

Astronomy

Jul. 28, 2016 Rise Set
Actual Time
Civil Twilight
Nautical Twilight
Astronomical Twilight
Moon
Length of Visible Light
Length of Day
Tomorrow will be .
, % of the Moon is Illuminated

Today's Extremes

State Highs State Lows

Community

WunderPhotos

Upload Photos

1,928,153 photos uploaded!

WunderBlog® & News

Nearby

Air Quality

  Air Quality AQ Index Pollutant
Not available.

Snow Depth

Station Depth Elevation

Earthquake Activity

City Distance Mag. Time & Date
Minimum magnitude displayed is 2.5.

Coastal Water Temperatures

Place Temperature

Stations

Nearby Weather Stations

Station Location Temp. Windchill Dew Point Humidity Wind Precip. Elev Updated Type
                   

Watches & Warnings

There are currently no watches in effect.